Etusivu
METAR-TAF:

METAR-TAF

Lentoasemat :

Hassi Messaoud, Algeria

Leveyspiiri: 31-40N, Pituuspiiri: 006-09E, korkeus merenpinnasta: 142 m

Tämänhetkinen sää

Tämä raportti tehtiin 18 minuuttia sitten, kello 14.00 UTC
Tuuli 7 kn pohjoisesta/koillisesta
Lämpötila 21°C
Kosteus 35%
Ilmanpaine 1024 hPa
Näkyvyys 10 km tai enemmän
ei pilviä alle 1500 m:ssä eikä cumulonimbus-pilviä

METAR: DAUH 181400Z 03007KT CAVOK 21/05 Q1024

Aika: 15:18 (14:18 UTC)

Sääennuste

Tämä raportti tehtiin 3 tuntia ja 18 minuuttia sitten, kello 11.00 UTC
Ennuste voimassa 18. päivästä klo 12 UTC - 19. päivään klo 12 UTC
Tuuli 8 kn idästä/koillisesta
Näkyvyys 10 km tai enemmän
ei pilviä alle 1500 m:ssä eikä cumulonimbus-pilviä

TAF: DAUH 181100Z 1812/1912 07008KT CAVOK

Säähavainnot ja -ennusteet yli 4000 lentoasemalta (METAR- ja TAF-raportit).

Käytössä olevat sääasemat on merkitty karttaan keltaisilla ja punaisilla pisteillä.

Aseta hiiri pisteen päälle nähdäksesi sääaseman nimen.

Klikkaa sitten nähdäksesi säähavainnot ja -ennusteet.

Kartan vaihtaminen: klikkaa mustalla rastilla varustettuja vihreitä pisteitä, niin voit zoomata sisään; viivalla varustettua vihreää pistettä, niin voit zoomata ulos tai vihreitä nuolia, niin pääset viereisille kartoille.


METAR-TAF: